Time,TemperatureF,DewpointF,PressureIn,WindDirection,WindDirectionDegrees,WindSpeedMPH,WindSpeedGustMPH,Humidity,HourlyPrecipIn,Conditions,Clouds,dailyrainin,SolarRadiationWatts/m^2,SoftwareType,DateUTC
2013-04-30 00:52:00,62.0,62.0,30.25,SSW,209,2.0,7.0,99,-99.99,,,1.30,0.000000,,2013-04-30 04:52:00,
2013-04-30 01:02:00,62.0,62.0,30.25,SSW,209,2.0,7.0,99,-99.99,,,1.30,0.000000,,2013-04-30 05:02:00,
2013-04-30 01:12:00,62.0,62.0,30.25,SSW,209,2.0,7.0,99,-99.99,,,1.30,0.000000,,2013-04-30 05:12:00,
2013-04-30 02:42:00,59.0,59.0,30.23,NE,34,2.0,4.0,99,-99.99,,,1.30,0.000000,,2013-04-30 06:42:00,
2013-04-30 02:52:00,59.0,59.0,30.23,NE,34,2.0,4.0,99,-99.99,,,1.30,0.000000,,2013-04-30 06:52:00,
2013-04-30 03:02:00,59.0,59.0,30.23,NE,34,2.0,4.0,99,-99.99,,,1.30,0.000000,,2013-04-30 07:02:00,
2013-04-30 03:11:00,59.0,59.0,30.23,NE,34,2.0,4.0,99,-99.99,,,1.30,0.000000,,2013-04-30 07:11:00,
2013-04-30 03:42:00,59.0,59.0,30.23,North,7,3.0,5.0,99,0.00,,,1.30,0.000000,,2013-04-30 07:42:00,
2013-04-30 03:52:00,59.0,59.0,30.23,North,7,3.0,5.0,99,0.00,,,1.30,0.000000,,2013-04-30 07:52:00,
2013-04-30 04:02:00,59.0,59.0,30.23,North,7,3.0,5.0,99,0.00,,,1.30,0.000000,,2013-04-30 08:02:00,
2013-04-30 04:11:00,59.0,59.0,30.23,North,7,3.0,5.0,99,0.00,,,1.30,0.000000,,2013-04-30 08:11:00,
2013-04-30 04:42:00,61.0,61.0,30.24,North,9,4.0,6.0,99,0.00,,,1.30,0.000000,,2013-04-30 08:42:00,
2013-04-30 04:52:00,61.0,61.0,30.24,North,9,4.0,6.0,99,0.00,,,1.30,0.000000,,2013-04-30 08:52:00,
2013-04-30 05:02:00,61.0,61.0,30.24,North,9,4.0,6.0,99,0.00,,,1.30,0.000000,,2013-04-30 09:02:00,
2013-04-30 05:11:00,61.0,61.0,30.24,North,9,4.0,6.0,99,0.00,,,1.30,0.000000,,2013-04-30 09:11:00,
2013-04-30 06:41:00,60.0,60.0,30.27,NNE,24,4.0,7.0,100,-99.99,,,1.30,0.000000,,2013-04-30 10:41:00,
2013-04-30 06:52:00,60.0,60.0,30.27,NNE,24,4.0,7.0,100,-99.99,,,1.30,0.000000,,2013-04-30 10:52:00,
2013-04-30 07:02:00,60.0,60.0,30.27,NNE,24,4.0,7.0,100,-99.99,,,1.30,0.000000,,2013-04-30 11:02:00,
2013-04-30 07:11:00,60.0,60.0,30.27,NNE,24,4.0,7.0,100,-99.99,,,1.30,0.000000,,2013-04-30 11:11:00,
2013-04-30 07:42:00,62.0,62.0,30.29,NNE,30,4.0,9.0,100,0.00,,,1.29,6.000000,,2013-04-30 11:42:00,
2013-04-30 07:52:00,62.0,62.0,30.29,NNE,30,4.0,9.0,100,0.00,,,1.29,6.000000,,2013-04-30 11:52:00,
2013-04-30 08:01:00,62.0,62.0,30.29,NNE,30,4.0,9.0,100,0.00,,,1.29,6.000000,,2013-04-30 12:01:00,
2013-04-30 08:11:00,62.0,62.0,30.29,NNE,30,4.0,9.0,100,0.00,,,1.29,6.000000,,2013-04-30 12:11:00,
2013-04-30 09:41:00,64.0,62.0,30.30,NNE,32,7.0,15.0,93,-99.99,,,0.91,232.000000,,2013-04-30 13:41:00,
2013-04-30 09:52:00,64.0,62.0,30.30,NNE,32,7.0,15.0,93,-99.99,,,0.91,232.000000,,2013-04-30 13:52:00,
2013-04-30 10:02:00,64.0,62.0,30.30,NNE,32,7.0,15.0,93,-99.99,,,0.91,232.000000,,2013-04-30 14:02:00,
2013-04-30 10:11:00,64.0,62.0,30.30,NNE,32,7.0,15.0,93,-99.99,,,0.91,232.000000,,2013-04-30 14:11:00,
2013-04-30 12:42:00,73.0,61.0,30.30,NE,55,6.0,15.0,65,-99.99,,,0.03,612.000000,,2013-04-30 16:42:00,
2013-04-30 12:52:00,73.0,61.0,30.30,NE,55,6.0,15.0,65,-99.99,,,0.03,612.000000,,2013-04-30 16:52:00,
2013-04-30 13:02:00,73.0,61.0,30.30,NE,55,6.0,15.0,65,-99.99,,,0.03,612.000000,,2013-04-30 17:02:00,
2013-04-30 13:12:00,73.0,61.0,30.30,NE,55,6.0,15.0,65,-99.99,,,0.03,612.000000,,2013-04-30 17:12:00,
2013-04-30 13:42:00,75.0,61.0,30.29,NE,54,7.0,15.0,62,0.00,,,0.03,443.000000,,2013-04-30 17:42:00,
2013-04-30 13:53:00,75.0,61.0,30.29,NE,54,7.0,15.0,62,0.00,,,0.03,443.000000,,2013-04-30 17:53:00,
2013-04-30 14:01:00,75.0,61.0,30.29,NE,54,7.0,15.0,62,0.00,,,0.03,443.000000,,2013-04-30 18:01:00,
2013-04-30 14:11:00,75.0,61.0,30.29,NE,54,7.0,15.0,62,0.00,,,0.03,443.000000,,2013-04-30 18:11:00,
2013-04-30 14:42:00,76.0,63.0,30.28,ESE,123,7.0,14.0,65,0.00,,,0.03,512.000000,,2013-04-30 18:42:00,
2013-04-30 14:52:00,76.0,63.0,30.28,ESE,123,7.0,14.0,65,0.00,,,0.03,512.000000,,2013-04-30 18:52:00,
2013-04-30 15:01:00,76.0,63.0,30.28,ESE,123,7.0,14.0,65,0.00,,,0.03,512.000000,,2013-04-30 19:01:00,
2013-04-30 15:11:00,76.0,63.0,30.28,ESE,123,7.0,14.0,65,0.00,,,0.03,512.000000,,2013-04-30 19:11:00,
2013-04-30 15:42:00,75.0,63.0,30.28,SE,133,4.0,13.0,67,0.00,,,0.03,567.000000,,2013-04-30 19:42:00,
2013-04-30 15:52:00,75.0,63.0,30.28,SE,133,4.0,13.0,67,0.00,,,0.03,567.000000,,2013-04-30 19:52:00,
2013-04-30 16:02:00,75.0,63.0,30.28,SE,133,4.0,13.0,67,0.00,,,0.03,567.000000,,2013-04-30 20:02:00,
2013-04-30 16:11:00,75.0,63.0,30.28,SE,133,4.0,13.0,67,0.00,,,0.03,567.000000,,2013-04-30 20:11:00,
2013-04-30 16:42:00,68.0,65.0,30.28,SSE,164,4.0,18.0,91,0.03,,,0.06,190.000000,,2013-04-30 20:42:00,
2013-04-30 16:52:00,68.0,65.0,30.28,SSE,164,4.0,18.0,91,0.03,,,0.06,190.000000,,2013-04-30 20:52:00,
2013-04-30 17:02:00,68.0,65.0,30.28,SSE,164,4.0,18.0,91,0.03,,,0.06,190.000000,,2013-04-30 21:02:00,
2013-04-30 17:11:00,68.0,65.0,30.28,SSE,164,4.0,18.0,91,0.03,,,0.06,190.000000,,2013-04-30 21:11:00,
2013-04-30 17:42:00,72.0,67.0,30.28,SSE,147,5.0,9.0,83,0.00,,,0.06,191.000000,,2013-04-30 21:42:00,
2013-04-30 17:53:00,72.0,67.0,30.28,SSE,147,5.0,9.0,83,0.00,,,0.06,191.000000,,2013-04-30 21:53:00,
2013-04-30 18:03:00,72.0,67.0,30.28,SSE,147,5.0,9.0,83,0.00,,,0.06,191.000000,,2013-04-30 22:03:00,
2013-04-30 18:12:00,72.0,67.0,30.28,SSE,147,5.0,9.0,83,0.00,,,0.06,191.000000,,2013-04-30 22:12:00,
2013-04-30 18:42:00,68.0,64.0,30.30,NW,323,3.0,8.0,88,0.01,,,0.07,193.000000,,2013-04-30 22:42:00,
2013-04-30 18:53:00,68.0,64.0,30.30,NW,323,3.0,8.0,88,0.01,,,0.07,193.000000,,2013-04-30 22:53:00,
2013-04-30 19:03:00,68.0,64.0,30.30,NW,323,3.0,8.0,88,0.01,,,0.07,193.000000,,2013-04-30 23:03:00,
2013-04-30 19:12:00,68.0,64.0,30.30,NW,323,3.0,8.0,88,0.01,,,0.07,193.000000,,2013-04-30 23:12:00,
2013-04-30 19:42:00,67.0,66.0,30.31,NNE,15,1.0,9.0,96,0.02,,,0.08,23.000000,,2013-04-30 23:42:00,
2013-04-30 19:52:00,67.0,66.0,30.31,NNE,15,1.0,9.0,96,0.02,,,0.08,23.000000,,2013-04-30 23:52:00,
2013-04-30 20:02:00,67.0,66.0,30.31,NNE,15,1.0,9.0,96,0.02,,,0.08,23.000000,,2013-05-01 00:02:00,
2013-04-30 20:11:00,67.0,66.0,30.31,NNE,15,1.0,9.0,96,0.02,,,0.08,23.000000,,2013-05-01 00:11:00,
2013-04-30 20:32:00,65.0,63.0,30.32,North,354,2.0,8.0,94,0.00,,,0.07,5.000000,,2013-05-01 00:32:00,
2013-04-30 20:42:00,65.0,63.0,30.32,North,354,2.0,8.0,94,0.00,,,0.07,5.000000,,2013-05-01 00:42:00,
2013-04-30 20:52:00,65.0,63.0,30.32,North,354,2.0,8.0,94,0.00,,,0.07,5.000000,,2013-05-01 00:52:00,
2013-04-30 21:01:00,65.0,63.0,30.32,North,354,2.0,8.0,94,0.00,,,0.07,5.000000,,2013-05-01 01:01:00,
2013-04-30 21:11:00,65.0,63.0,30.32,North,354,2.0,8.0,94,0.00,,,0.07,5.000000,,2013-05-01 01:11:00,
2013-04-30 21:42:00,65.0,64.0,30.34,North,9,4.0,8.0,96,0.00,,,0.06,0.000000,,2013-05-01 01:42:00,
2013-04-30 21:52:00,65.0,64.0,30.34,North,9,4.0,8.0,96,0.00,,,0.06,0.000000,,2013-05-01 01:52:00,
2013-04-30 22:02:00,65.0,64.0,30.34,North,9,4.0,8.0,96,0.00,,,0.06,0.000000,,2013-05-01 02:02:00,
2013-04-30 22:11:00,65.0,64.0,30.34,North,9,4.0,8.0,96,0.00,,,0.06,0.000000,,2013-05-01 02:11:00,
2013-04-30 22:42:00,64.0,61.0,30.36,North,10,5.0,11.0,89,0.00,,,0.06,0.000000,,2013-05-01 02:42:00,
2013-04-30 22:52:00,64.0,61.0,30.36,North,10,5.0,11.0,89,0.00,,,0.06,0.000000,,2013-05-01 02:52:00,
2013-04-30 23:02:00,64.0,61.0,30.36,North,10,5.0,11.0,89,0.00,,,0.06,0.000000,,2013-05-01 03:02:00,
2013-04-30 23:11:00,64.0,61.0,30.36,North,10,5.0,11.0,89,0.00,,,0.06,0.000000,,2013-05-01 03:11:00,
2013-04-30 23:43:00,61.0,57.0,30.35,NNE,19,7.0,13.0,88,0.00,,,-99.99,0.000000,,2013-05-01 03:43:00,
2013-04-30 23:53:00,61.0,57.0,30.35,NNE,19,7.0,13.0,88,0.00,,,-99.99,0.000000,,2013-05-01 03:53:00,